sensor_id;sensor_type;location;lat;lon;timestamp;P1;durP1;ratioP1;P2;durP2;ratioP2
18166;SDS011;9208;42.688;23.404;2023-08-01T00:01:44;3.27;;;2.97;;
18166;SDS011;9208;42.688;23.404;2023-08-01T00:04:10;7.60;;;6.90;;
18166;SDS011;9208;42.688;23.404;2023-08-01T00:06:38;3.10;;;2.80;;
18166;SDS011;9208;42.688;23.404;2023-08-01T00:09:03;2.40;;;2.20;;
18166;SDS011;9208;42.688;23.404;2023-08-01T00:11:28;2.33;;;2.13;;
18166;SDS011;9208;42.688;23.404;2023-08-01T00:13:54;2.23;;;2.03;;
18166;SDS011;9208;42.688;23.404;2023-08-01T00:16:19;2.23;;;2.03;;
18166;SDS011;9208;42.688;23.404;2023-08-01T00:18:44;3.20;;;2.70;;
18166;SDS011;9208;42.688;23.404;2023-08-01T00:21:10;3.93;;;2.70;;
18166;SDS011;9208;42.688;23.404;2023-08-01T00:23:36;5.10;;;3.30;;
18166;SDS011;9208;42.688;23.404;2023-08-01T00:26:02;3.80;;;3.50;;
18166;SDS011;9208;42.688;23.404;2023-08-01T00:28:27;4.83;;;3.80;;
18166;SDS011;9208;42.688;23.404;2023-08-01T00:31:05;4.37;;;4.07;;
18166;SDS011;9208;42.688;23.404;2023-08-01T00:33:31;4.53;;;4.13;;
18166;SDS011;9208;42.688;23.404;2023-08-01T00:35:56;4.30;;;4.00;;
18166;SDS011;9208;42.688;23.404;2023-08-01T00:38:21;4.53;;;4.23;;
18166;SDS011;9208;42.688;23.404;2023-08-01T00:40:46;4.63;;;4.20;;
18166;SDS011;9208;42.688;23.404;2023-08-01T00:43:12;4.40;;;4.00;;
18166;SDS011;9208;42.688;23.404;2023-08-01T00:45:37;4.17;;;3.87;;
18166;SDS011;9208;42.688;23.404;2023-08-01T00:48:02;5.20;;;4.80;;
18166;SDS011;9208;42.688;23.404;2023-08-01T00:50:28;4.50;;;4.13;;
18166;SDS011;9208;42.688;23.404;2023-08-01T00:52:53;4.80;;;4.43;;
18166;SDS011;9208;42.688;23.404;2023-08-01T00:55:19;4.63;;;4.23;;
18166;SDS011;9208;42.688;23.404;2023-08-01T00:57:49;4.40;;;4.10;;
18166;SDS011;9208;42.688;23.404;2023-08-01T01:00:14;4.63;;;4.30;;
18166;SDS011;9208;42.688;23.404;2023-08-01T01:02:39;4.83;;;4.43;;
18166;SDS011;9208;42.688;23.404;2023-08-01T01:05:05;4.10;;;3.80;;
18166;SDS011;9208;42.688;23.404;2023-08-01T01:07:31;4.03;;;3.73;;
18166;SDS011;9208;42.688;23.404;2023-08-01T01:09:57;4.33;;;3.93;;
18166;SDS011;9208;42.688;23.404;2023-08-01T01:12:22;4.47;;;4.17;;
18166;SDS011;9208;42.688;23.404;2023-08-01T01:14:47;4.87;;;4.47;;
18166;SDS011;9208;42.688;23.404;2023-08-01T01:17:13;5.17;;;4.77;;
18166;SDS011;9208;42.688;23.404;2023-08-01T01:19:38;5.13;;;4.73;;
18166;SDS011;9208;42.688;23.404;2023-08-01T01:22:03;5.10;;;4.70;;
18166;SDS011;9208;42.688;23.404;2023-08-01T01:24:29;5.50;;;4.93;;
18166;SDS011;9208;42.688;23.404;2023-08-01T01:26:56;5.37;;;4.87;;
18166;SDS011;9208;42.688;23.404;2023-08-01T01:29:21;4.43;;;4.07;;
18166;SDS011;9208;42.688;23.404;2023-08-01T01:31:48;4.63;;;4.20;;
18166;SDS011;9208;42.688;23.404;2023-08-01T01:34:13;4.43;;;4.13;;
18166;SDS011;9208;42.688;23.404;2023-08-01T01:36:39;4.77;;;4.37;;
18166;SDS011;9208;42.688;23.404;2023-08-01T01:39:04;4.80;;;4.30;;
18166;SDS011;9208;42.688;23.404;2023-08-01T01:41:29;5.47;;;4.17;;
18166;SDS011;9208;42.688;23.404;2023-08-01T01:43:58;5.27;;;4.33;;
18166;SDS011;9208;42.688;23.404;2023-08-01T01:46:23;5.30;;;4.40;;
18166;SDS011;9208;42.688;23.404;2023-08-01T01:48:48;4.57;;;4.17;;
18166;SDS011;9208;42.688;23.404;2023-08-01T01:51:16;4.00;;;3.70;;
18166;SDS011;9208;42.688;23.404;2023-08-01T01:53:42;4.80;;;4.37;;
18166;SDS011;9208;42.688;23.404;2023-08-01T01:56:07;4.37;;;4.00;;
18166;SDS011;9208;42.688;23.404;2023-08-01T01:58:32;4.40;;;4.10;;
18166;SDS011;9208;42.688;23.404;2023-08-01T02:00:58;4.80;;;4.40;;
18166;SDS011;9208;42.688;23.404;2023-08-01T02:03:23;5.10;;;4.70;;
18166;SDS011;9208;42.688;23.404;2023-08-01T02:05:48;6.03;;;5.63;;
18166;SDS011;9208;42.688;23.404;2023-08-01T02:08:13;6.40;;;5.80;;
18166;SDS011;9208;42.688;23.404;2023-08-01T02:10:39;4.70;;;4.20;;
18166;SDS011;9208;42.688;23.404;2023-08-01T02:13:04;5.17;;;4.37;;
18166;SDS011;9208;42.688;23.404;2023-08-01T02:15:29;3.80;;;3.50;;
18166;SDS011;9208;42.688;23.404;2023-08-01T02:17:56;3.70;;;3.50;;
18166;SDS011;9208;42.688;23.404;2023-08-01T02:20:22;3.57;;;3.37;;
18166;SDS011;9208;42.688;23.404;2023-08-01T02:22:47;3.77;;;3.27;;
18166;SDS011;9208;42.688;23.404;2023-08-01T02:25:12;3.83;;;3.53;;
18166;SDS011;9208;42.688;23.404;2023-08-01T02:27:37;3.90;;;3.47;;
18166;SDS011;9208;42.688;23.404;2023-08-01T02:30:03;4.23;;;3.40;;
18166;SDS011;9208;42.688;23.404;2023-08-01T02:32:30;4.50;;;4.10;;
18166;SDS011;9208;42.688;23.404;2023-08-01T02:34:55;4.90;;;4.50;;
18166;SDS011;9208;42.688;23.404;2023-08-01T02:37:20;4.10;;;3.80;;
18166;SDS011;9208;42.688;23.404;2023-08-01T02:39:46;3.77;;;3.47;;
18166;SDS011;9208;42.688;23.404;2023-08-01T02:42:11;3.30;;;3.00;;
18166;SDS011;9208;42.688;23.404;2023-08-01T02:44:36;3.87;;;3.57;;
18166;SDS011;9208;42.688;23.404;2023-08-01T02:47:01;4.63;;;4.30;;
18166;SDS011;9208;42.688;23.404;2023-08-01T02:49:27;5.00;;;4.57;;
18166;SDS011;9208;42.688;23.404;2023-08-01T02:51:52;9.13;;;8.33;;
18166;SDS011;9208;42.688;23.404;2023-08-01T02:54:17;5.00;;;4.60;;
18166;SDS011;9208;42.688;23.404;2023-08-01T02:56:43;5.13;;;4.73;;
18166;SDS011;9208;42.688;23.404;2023-08-01T02:59:08;5.90;;;5.40;;
18166;SDS011;9208;42.688;23.404;2023-08-01T03:01:34;6.23;;;5.70;;
18166;SDS011;9208;42.688;23.404;2023-08-01T03:04:00;5.90;;;5.40;;
18166;SDS011;9208;42.688;23.404;2023-08-01T03:06:25;5.60;;;5.10;;
18166;SDS011;9208;42.688;23.404;2023-08-01T03:08:50;5.17;;;4.77;;
18166;SDS011;9208;42.688;23.404;2023-08-01T03:11:16;5.23;;;4.83;;
18166;SDS011;9208;42.688;23.404;2023-08-01T03:13:41;5.57;;;5.03;;
18166;SDS011;9208;42.688;23.404;2023-08-01T03:16:06;5.20;;;4.80;;
18166;SDS011;9208;42.688;23.404;2023-08-01T03:18:32;5.13;;;4.73;;
18166;SDS011;9208;42.688;23.404;2023-08-01T03:20:57;5.53;;;5.03;;
18166;SDS011;9208;42.688;23.404;2023-08-01T03:23:22;5.20;;;4.80;;
18166;SDS011;9208;42.688;23.404;2023-08-01T03:25:47;5.57;;;5.17;;
18166;SDS011;9208;42.688;23.404;2023-08-01T03:28:13;5.57;;;5.07;;
18166;SDS011;9208;42.688;23.404;2023-08-01T03:30:39;5.50;;;4.83;;
18166;SDS011;9208;42.688;23.404;2023-08-01T03:33:04;5.53;;;4.80;;
18166;SDS011;9208;42.688;23.404;2023-08-01T03:35:29;5.30;;;4.77;;
18166;SDS011;9208;42.688;23.404;2023-08-01T03:37:54;5.60;;;5.10;;
18166;SDS011;9208;42.688;23.404;2023-08-01T03:40:20;5.50;;;5.07;;
18166;SDS011;9208;42.688;23.404;2023-08-01T03:42:45;5.73;;;5.20;;
18166;SDS011;9208;42.688;23.404;2023-08-01T03:45:10;5.67;;;4.73;;
18166;SDS011;9208;42.688;23.404;2023-08-01T03:47:36;4.57;;;4.17;;
18166;SDS011;9208;42.688;23.404;2023-08-01T03:50:01;4.77;;;4.37;;
18166;SDS011;9208;42.688;23.404;2023-08-01T03:52:26;5.43;;;4.93;;
18166;SDS011;9208;42.688;23.404;2023-08-01T03:54:55;5.23;;;4.73;;
18166;SDS011;9208;42.688;23.404;2023-08-01T03:57:20;4.63;;;4.33;;
18166;SDS011;9208;42.688;23.404;2023-08-01T03:59:48;4.83;;;4.43;;
18166;SDS011;9208;42.688;23.404;2023-08-01T04:02:14;7.13;;;4.63;;
18166;SDS011;9208;42.688;23.404;2023-08-01T04:04:39;5.00;;;4.53;;
18166;SDS011;9208;42.688;23.404;2023-08-01T04:07:04;4.73;;;4.33;;
18166;SDS011;9208;42.688;23.404;2023-08-01T04:09:29;4.70;;;4.27;;
18166;SDS011;9208;42.688;23.404;2023-08-01T04:11:55;4.57;;;4.17;;
18166;SDS011;9208;42.688;23.404;2023-08-01T04:14:20;4.90;;;4.50;;
18166;SDS011;9208;42.688;23.404;2023-08-01T04:16:45;4.97;;;4.23;;
18166;SDS011;9208;42.688;23.404;2023-08-01T04:19:11;4.70;;;4.30;;
18166;SDS011;9208;42.688;23.404;2023-08-01T04:21:36;7.63;;;5.50;;
18166;SDS011;9208;42.688;23.404;2023-08-01T04:24:01;6.57;;;5.97;;
18166;SDS011;9208;42.688;23.404;2023-08-01T04:26:26;8.57;;;7.77;;
18166;SDS011;9208;42.688;23.404;2023-08-01T04:28:52;6.93;;;6.27;;
18166;SDS011;9208;42.688;23.404;2023-08-01T04:31:17;8.47;;;6.63;;
18166;SDS011;9208;42.688;23.404;2023-08-01T04:33:43;7.00;;;6.40;;
18166;SDS011;9208;42.688;23.404;2023-08-01T04:36:11;5.73;;;5.23;;
18166;SDS011;9208;42.688;23.404;2023-08-01T04:38:36;6.37;;;5.77;;
18166;SDS011;9208;42.688;23.404;2023-08-01T04:41:01;6.23;;;5.63;;
18166;SDS011;9208;42.688;23.404;2023-08-01T04:43:28;6.60;;;5.57;;
18166;SDS011;9208;42.688;23.404;2023-08-01T04:45:53;5.80;;;5.20;;
18166;SDS011;9208;42.688;23.404;2023-08-01T04:48:18;9.47;;;5.03;;
18166;SDS011;9208;42.688;23.404;2023-08-01T04:50:44;5.60;;;5.10;;
18166;SDS011;9208;42.688;23.404;2023-08-01T04:53:09;6.07;;;5.53;;
18166;SDS011;9208;42.688;23.404;2023-08-01T04:55:36;5.80;;;5.30;;
18166;SDS011;9208;42.688;23.404;2023-08-01T04:58:01;5.03;;;4.40;;
18166;SDS011;9208;42.688;23.404;2023-08-01T05:00:27;7.83;;;5.37;;
18166;SDS011;9208;42.688;23.404;2023-08-01T05:02:52;6.90;;;6.23;;
18166;SDS011;9208;42.688;23.404;2023-08-01T05:05:17;6.73;;;6.03;;
18166;SDS011;9208;42.688;23.404;2023-08-01T05:07:42;5.57;;;5.10;;
18166;SDS011;9208;42.688;23.404;2023-08-01T05:10:08;5.30;;;4.90;;
18166;SDS011;9208;42.688;23.404;2023-08-01T05:12:33;6.63;;;5.10;;
18166;SDS011;9208;42.688;23.404;2023-08-01T05:14:58;5.17;;;4.77;;
18166;SDS011;9208;42.688;23.404;2023-08-01T05:17:23;5.10;;;4.63;;
18166;SDS011;9208;42.688;23.404;2023-08-01T05:19:49;5.57;;;5.07;;
18166;SDS011;9208;42.688;23.404;2023-08-01T05:22:14;5.40;;;4.90;;
18166;SDS011;9208;42.688;23.404;2023-08-01T05:24:39;5.20;;;4.80;;
18166;SDS011;9208;42.688;23.404;2023-08-01T05:27:05;4.83;;;4.10;;
18166;SDS011;9208;42.688;23.404;2023-08-01T05:29:30;8.90;;;4.73;;
18166;SDS011;9208;42.688;23.404;2023-08-01T05:31:55;4.80;;;4.40;;
18166;SDS011;9208;42.688;23.404;2023-08-01T05:34:20;5.13;;;4.17;;
18166;SDS011;9208;42.688;23.404;2023-08-01T05:36:46;5.90;;;4.10;;
18166;SDS011;9208;42.688;23.404;2023-08-01T05:39:11;4.70;;;4.30;;
18166;SDS011;9208;42.688;23.404;2023-08-01T05:41:36;5.27;;;4.40;;
18166;SDS011;9208;42.688;23.404;2023-08-01T05:44:02;5.47;;;4.53;;
18166;SDS011;9208;42.688;23.404;2023-08-01T05:46:27;4.80;;;4.40;;
18166;SDS011;9208;42.688;23.404;2023-08-01T05:48:52;8.07;;;4.37;;
18166;SDS011;9208;42.688;23.404;2023-08-01T05:51:18;6.20;;;4.83;;
18166;SDS011;9208;42.688;23.404;2023-08-01T05:53:43;4.57;;;4.00;;
18166;SDS011;9208;42.688;23.404;2023-08-01T05:56:08;4.53;;;4.13;;
18166;SDS011;9208;42.688;23.404;2023-08-01T05:58:33;4.00;;;3.60;;
18166;SDS011;9208;42.688;23.404;2023-08-01T06:00:59;5.47;;;4.00;;
18166;SDS011;9208;42.688;23.404;2023-08-01T06:03:24;5.63;;;4.10;;
18166;SDS011;9208;42.688;23.404;2023-08-01T06:05:49;6.20;;;4.10;;
18166;SDS011;9208;42.688;23.404;2023-08-01T06:08:15;3.43;;;3.13;;
18166;SDS011;9208;42.688;23.404;2023-08-01T06:10:43;6.17;;;4.30;;
18166;SDS011;9208;42.688;23.404;2023-08-01T06:13:09;6.27;;;4.70;;
18166;SDS011;9208;42.688;23.404;2023-08-01T06:15:34;8.63;;;3.87;;
18166;SDS011;9208;42.688;23.404;2023-08-01T06:18:00;8.17;;;4.00;;
18166;SDS011;9208;42.688;23.404;2023-08-01T06:20:27;6.70;;;3.87;;
18166;SDS011;9208;42.688;23.404;2023-08-01T06:22:52;6.87;;;3.90;;
18166;SDS011;9208;42.688;23.404;2023-08-01T06:25:17;4.30;;;3.70;;
18166;SDS011;9208;42.688;23.404;2023-08-01T06:27:43;6.67;;;4.47;;
18166;SDS011;9208;42.688;23.404;2023-08-01T06:30:08;8.40;;;4.90;;
18166;SDS011;9208;42.688;23.404;2023-08-01T06:32:33;3.93;;;3.50;;
18166;SDS011;9208;42.688;23.404;2023-08-01T06:34:59;5.43;;;3.50;;
18166;SDS011;9208;42.688;23.404;2023-08-01T06:37:24;5.73;;;3.57;;
18166;SDS011;9208;42.688;23.404;2023-08-01T06:39:50;5.27;;;3.07;;
18166;SDS011;9208;42.688;23.404;2023-08-01T06:42:15;6.67;;;3.63;;
18166;SDS011;9208;42.688;23.404;2023-08-01T06:44:41;7.40;;;3.17;;
18166;SDS011;9208;42.688;23.404;2023-08-01T06:47:07;7.43;;;2.93;;
18166;SDS011;9208;42.688;23.404;2023-08-01T06:49:33;6.37;;;3.17;;
18166;SDS011;9208;42.688;23.404;2023-08-01T06:51:58;5.47;;;3.10;;
18166;SDS011;9208;42.688;23.404;2023-08-01T06:54:23;3.67;;;2.80;;
18166;SDS011;9208;42.688;23.404;2023-08-01T06:56:48;2.60;;;2.40;;
18166;SDS011;9208;42.688;23.404;2023-08-01T06:59:14;3.90;;;2.97;;
18166;SDS011;9208;42.688;23.404;2023-08-01T07:01:40;4.90;;;3.20;;
18166;SDS011;9208;42.688;23.404;2023-08-01T07:04:08;7.90;;;4.97;;
18166;SDS011;9208;42.688;23.404;2023-08-01T07:06:33;3.50;;;3.20;;
18166;SDS011;9208;42.688;23.404;2023-08-01T07:08:59;4.77;;;2.73;;
18166;SDS011;9208;42.688;23.404;2023-08-01T07:11:24;7.93;;;2.80;;
18166;SDS011;9208;42.688;23.404;2023-08-01T07:13:49;3.67;;;2.57;;
18166;SDS011;9208;42.688;23.404;2023-08-01T07:16:15;3.23;;;2.50;;
18166;SDS011;9208;42.688;23.404;2023-08-01T07:18:40;2.60;;;2.40;;
18166;SDS011;9208;42.688;23.404;2023-08-01T07:21:05;3.47;;;2.87;;
18166;SDS011;9208;42.688;23.404;2023-08-01T07:23:31;3.37;;;2.57;;
18166;SDS011;9208;42.688;23.404;2023-08-01T07:25:56;2.90;;;2.70;;
18166;SDS011;9208;42.688;23.404;2023-08-01T07:28:22;5.10;;;2.63;;
18166;SDS011;9208;42.688;23.404;2023-08-01T07:30:47;5.07;;;2.63;;
18166;SDS011;9208;42.688;23.404;2023-08-01T07:33:12;2.60;;;2.27;;
18166;SDS011;9208;42.688;23.404;2023-08-01T07:35:37;4.57;;;2.90;;
18166;SDS011;9208;42.688;23.404;2023-08-01T07:38:03;3.67;;;3.37;;
18166;SDS011;9208;42.688;23.404;2023-08-01T07:40:28;5.07;;;3.43;;
18166;SDS011;9208;42.688;23.404;2023-08-01T07:42:53;4.40;;;4.00;;
18166;SDS011;9208;42.688;23.404;2023-08-01T07:45:18;3.93;;;3.53;;
18166;SDS011;9208;42.688;23.404;2023-08-01T07:47:44;3.23;;;2.93;;
18166;SDS011;9208;42.688;23.404;2023-08-01T07:50:10;2.53;;;2.33;;
18166;SDS011;9208;42.688;23.404;2023-08-01T07:52:35;4.37;;;3.10;;
18166;SDS011;9208;42.688;23.404;2023-08-01T07:55:01;3.00;;;2.73;;
18166;SDS011;9208;42.688;23.404;2023-08-01T07:57:26;3.87;;;3.00;;
18166;SDS011;9208;42.688;23.404;2023-08-01T07:59:51;2.87;;;2.67;;
18166;SDS011;9208;42.688;23.404;2023-08-01T08:02:17;5.30;;;3.03;;
18166;SDS011;9208;42.688;23.404;2023-08-01T08:04:42;3.20;;;2.90;;
18166;SDS011;9208;42.688;23.404;2023-08-01T08:07:07;6.20;;;2.70;;
18166;SDS011;9208;42.688;23.404;2023-08-01T08:09:32;3.43;;;2.70;;
18166;SDS011;9208;42.688;23.404;2023-08-01T08:11:57;5.03;;;3.03;;
18166;SDS011;9208;42.688;23.404;2023-08-01T08:14:23;3.33;;;2.97;;
18166;SDS011;9208;42.688;23.404;2023-08-01T08:16:48;4.73;;;3.70;;
18166;SDS011;9208;42.688;23.404;2023-08-01T08:19:14;3.60;;;3.27;;
18166;SDS011;9208;42.688;23.404;2023-08-01T08:21:39;4.10;;;2.83;;
18166;SDS011;9208;42.688;23.404;2023-08-01T08:24:04;3.70;;;2.90;;
18166;SDS011;9208;42.688;23.404;2023-08-01T08:26:30;3.93;;;2.90;;
18166;SDS011;9208;42.688;23.404;2023-08-01T08:28:56;3.33;;;2.77;;
18166;SDS011;9208;42.688;23.404;2023-08-01T08:31:21;3.00;;;2.73;;
18166;SDS011;9208;42.688;23.404;2023-08-01T08:33:49;2.90;;;2.70;;
18166;SDS011;9208;42.688;23.404;2023-08-01T08:36:14;2.90;;;2.70;;
18166;SDS011;9208;42.688;23.404;2023-08-01T08:38:40;4.30;;;2.50;;
18166;SDS011;9208;42.688;23.404;2023-08-01T08:41:06;4.97;;;3.00;;
18166;SDS011;9208;42.688;23.404;2023-08-01T08:43:33;3.70;;;2.60;;
18166;SDS011;9208;42.688;23.404;2023-08-01T08:46:00;4.47;;;2.90;;
18166;SDS011;9208;42.688;23.404;2023-08-01T08:48:25;3.33;;;3.00;;
18166;SDS011;9208;42.688;23.404;2023-08-01T08:50:51;3.77;;;2.80;;
18166;SDS011;9208;42.688;23.404;2023-08-01T08:53:16;3.73;;;3.47;;
18166;SDS011;9208;42.688;23.404;2023-08-01T08:55:42;5.43;;;2.90;;
18166;SDS011;9208;42.688;23.404;2023-08-01T08:58:08;3.17;;;2.63;;
18166;SDS011;9208;42.688;23.404;2023-08-01T09:00:37;4.63;;;3.40;;
18166;SDS011;9208;42.688;23.404;2023-08-01T09:03:03;3.87;;;3.00;;
18166;SDS011;9208;42.688;23.404;2023-08-01T09:05:30;2.73;;;2.53;;
18166;SDS011;9208;42.688;23.404;2023-08-01T09:07:56;3.07;;;2.77;;
18166;SDS011;9208;42.688;23.404;2023-08-01T09:10:21;3.50;;;3.20;;
18166;SDS011;9208;42.688;23.404;2023-08-01T09:12:47;4.17;;;3.10;;
18166;SDS011;9208;42.688;23.404;2023-08-01T09:15:12;3.50;;;3.20;;
18166;SDS011;9208;42.688;23.404;2023-08-01T09:17:50;4.37;;;3.70;;
18166;SDS011;9208;42.688;23.404;2023-08-01T09:20:16;5.53;;;3.20;;
18166;SDS011;9208;42.688;23.404;2023-08-01T09:22:44;3.53;;;2.90;;
18166;SDS011;9208;42.688;23.404;2023-08-01T09:25:10;3.07;;;2.87;;
18166;SDS011;9208;42.688;23.404;2023-08-01T09:27:36;3.07;;;2.73;;
18166;SDS011;9208;42.688;23.404;2023-08-01T09:30:09;3.63;;;2.70;;
18166;SDS011;9208;42.688;23.404;2023-08-01T09:32:34;3.23;;;3.00;;
18166;SDS011;9208;42.688;23.404;2023-08-01T09:35:00;3.30;;;3.00;;
18166;SDS011;9208;42.688;23.404;2023-08-01T09:37:25;4.13;;;3.40;;
18166;SDS011;9208;42.688;23.404;2023-08-01T09:39:56;4.63;;;3.40;;
18166;SDS011;9208;42.688;23.404;2023-08-01T09:42:22;4.13;;;3.60;;
18166;SDS011;9208;42.688;23.404;2023-08-01T09:44:48;3.80;;;3.40;;
18166;SDS011;9208;42.688;23.404;2023-08-01T09:47:13;3.77;;;3.47;;
18166;SDS011;9208;42.688;23.404;2023-08-01T09:49:47;5.37;;;3.50;;
18166;SDS011;9208;42.688;23.404;2023-08-01T09:52:12;3.80;;;3.47;;
18166;SDS011;9208;42.688;23.404;2023-08-01T09:54:37;3.97;;;3.57;;
18166;SDS011;9208;42.688;23.404;2023-08-01T09:57:04;7.63;;;4.00;;
18166;SDS011;9208;42.688;23.404;2023-08-01T09:59:31;6.23;;;3.80;;
18166;SDS011;9208;42.688;23.404;2023-08-01T10:01:57;5.53;;;4.27;;
18166;SDS011;9208;42.688;23.404;2023-08-01T10:04:24;4.97;;;3.20;;
18166;SDS011;9208;42.688;23.404;2023-08-01T10:06:56;3.83;;;3.07;;
18166;SDS011;9208;42.688;23.404;2023-08-01T10:09:22;4.63;;;3.10;;
18166;SDS011;9208;42.688;23.404;2023-08-01T10:11:47;11.00;;;3.50;;
18166;SDS011;9208;42.688;23.404;2023-08-01T10:14:13;3.47;;;2.90;;
18166;SDS011;9208;42.688;23.404;2023-08-01T10:16:39;4.60;;;4.20;;
18166;SDS011;9208;42.688;23.404;2023-08-01T10:19:05;4.83;;;4.03;;
18166;SDS011;9208;42.688;23.404;2023-08-01T10:21:31;4.20;;;3.70;;
18166;SDS011;9208;42.688;23.404;2023-08-01T10:23:56;4.77;;;3.90;;
18166;SDS011;9208;42.688;23.404;2023-08-01T10:26:23;4.20;;;3.80;;
18166;SDS011;9208;42.688;23.404;2023-08-01T10:28:50;4.97;;;3.93;;
18166;SDS011;9208;42.688;23.404;2023-08-01T10:31:16;3.90;;;3.50;;
18166;SDS011;9208;42.688;23.404;2023-08-01T10:33:43;5.37;;;3.73;;
18166;SDS011;9208;42.688;23.404;2023-08-01T10:36:24;4.90;;;3.53;;
18166;SDS011;9208;42.688;23.404;2023-08-01T10:38:53;5.03;;;4.00;;
18166;SDS011;9208;42.688;23.404;2023-08-01T10:41:19;6.37;;;4.23;;
18166;SDS011;9208;42.688;23.404;2023-08-01T10:43:44;4.70;;;3.90;;
18166;SDS011;9208;42.688;23.404;2023-08-01T10:46:09;4.57;;;3.70;;
18166;SDS011;9208;42.688;23.404;2023-08-01T10:48:35;4.20;;;3.53;;
18166;SDS011;9208;42.688;23.404;2023-08-01T10:51:00;4.73;;;3.57;;
18166;SDS011;9208;42.688;23.404;2023-08-01T10:53:36;7.47;;;4.10;;
18166;SDS011;9208;42.688;23.404;2023-08-01T10:56:02;4.90;;;3.73;;
18166;SDS011;9208;42.688;23.404;2023-08-01T10:58:27;5.47;;;3.83;;
18166;SDS011;9208;42.688;23.404;2023-08-01T11:00:59;3.70;;;3.40;;
18166;SDS011;9208;42.688;23.404;2023-08-01T11:03:37;3.50;;;3.20;;
18166;SDS011;9208;42.688;23.404;2023-08-01T11:06:02;4.20;;;3.30;;
18166;SDS011;9208;42.688;23.404;2023-08-01T11:08:38;4.00;;;3.60;;
18166;SDS011;9208;42.688;23.404;2023-08-01T11:11:07;4.63;;;4.10;;
18166;SDS011;9208;42.688;23.404;2023-08-01T11:13:33;4.17;;;3.20;;
18166;SDS011;9208;42.688;23.404;2023-08-01T11:16:01;3.77;;;3.30;;
18166;SDS011;9208;42.688;23.404;2023-08-01T11:18:26;6.67;;;3.40;;
18166;SDS011;9208;42.688;23.404;2023-08-01T11:20:51;7.13;;;3.97;;
18166;SDS011;9208;42.688;23.404;2023-08-01T11:23:16;5.17;;;3.70;;
18166;SDS011;9208;42.688;23.404;2023-08-01T11:25:42;3.80;;;3.37;;
18166;SDS011;9208;42.688;23.404;2023-08-01T11:28:09;4.40;;;3.20;;
18166;SDS011;9208;42.688;23.404;2023-08-01T11:30:35;5.57;;;3.20;;
18166;SDS011;9208;42.688;23.404;2023-08-01T11:33:01;4.43;;;4.03;;
18166;SDS011;9208;42.688;23.404;2023-08-01T11:35:28;4.23;;;3.83;;
18166;SDS011;9208;42.688;23.404;2023-08-01T11:37:53;4.27;;;3.57;;
18166;SDS011;9208;42.688;23.404;2023-08-01T11:40:18;4.43;;;3.20;;
18166;SDS011;9208;42.688;23.404;2023-08-01T11:42:48;3.53;;;3.23;;
18166;SDS011;9208;42.688;23.404;2023-08-01T11:45:16;6.10;;;3.53;;
18166;SDS011;9208;42.688;23.404;2023-08-01T11:47:45;5.40;;;3.53;;
18166;SDS011;9208;42.688;23.404;2023-08-01T11:50:11;8.07;;;3.40;;
18166;SDS011;9208;42.688;23.404;2023-08-01T11:52:36;4.60;;;3.10;;
18166;SDS011;9208;42.688;23.404;2023-08-01T11:55:02;5.47;;;3.60;;
18166;SDS011;9208;42.688;23.404;2023-08-01T11:57:27;3.40;;;3.10;;
18166;SDS011;9208;42.688;23.404;2023-08-01T11:59:54;3.37;;;3.07;;
18166;SDS011;9208;42.688;23.404;2023-08-01T12:02:20;3.77;;;2.80;;
18166;SDS011;9208;42.688;23.404;2023-08-01T12:04:45;3.10;;;2.90;;
18166;SDS011;9208;42.688;23.404;2023-08-01T12:07:14;3.40;;;3.10;;
18166;SDS011;9208;42.688;23.404;2023-08-01T12:09:40;4.73;;;3.23;;
18166;SDS011;9208;42.688;23.404;2023-08-01T12:12:05;3.07;;;2.87;;
18166;SDS011;9208;42.688;23.404;2023-08-01T12:14:30;3.40;;;3.10;;
18166;SDS011;9208;42.688;23.404;2023-08-01T12:16:56;4.93;;;3.60;;
18166;SDS011;9208;42.688;23.404;2023-08-01T12:19:21;3.43;;;3.23;;
18166;SDS011;9208;42.688;23.404;2023-08-01T12:21:47;4.90;;;3.30;;
18166;SDS011;9208;42.688;23.404;2023-08-01T12:24:13;3.77;;;2.83;;
18166;SDS011;9208;42.688;23.404;2023-08-01T12:26:38;3.43;;;3.13;;
18166;SDS011;9208;42.688;23.404;2023-08-01T12:29:03;4.63;;;3.13;;
18166;SDS011;9208;42.688;23.404;2023-08-01T12:31:29;3.83;;;3.03;;
18166;SDS011;9208;42.688;23.404;2023-08-01T12:33:54;3.27;;;3.00;;
18166;SDS011;9208;42.688;23.404;2023-08-01T12:36:19;3.73;;;3.17;;
18166;SDS011;9208;42.688;23.404;2023-08-01T12:38:45;3.40;;;3.10;;
18166;SDS011;9208;42.688;23.404;2023-08-01T12:41:10;5.37;;;3.20;;
18166;SDS011;9208;42.688;23.404;2023-08-01T12:43:36;6.00;;;3.50;;
18166;SDS011;9208;42.688;23.404;2023-08-01T12:46:02;3.37;;;3.07;;
18166;SDS011;9208;42.688;23.404;2023-08-01T12:48:27;4.70;;;2.77;;
18166;SDS011;9208;42.688;23.404;2023-08-01T12:50:53;3.97;;;3.13;;
18166;SDS011;9208;42.688;23.404;2023-08-01T12:53:18;3.40;;;3.10;;
18166;SDS011;9208;42.688;23.404;2023-08-01T12:55:44;4.53;;;3.10;;
18166;SDS011;9208;42.688;23.404;2023-08-01T12:58:10;5.43;;;2.92;;
18166;SDS011;9208;42.688;23.404;2023-08-01T13:00:35;3.60;;;3.10;;
18166;SDS011;9208;42.688;23.404;2023-08-01T13:03:00;4.30;;;3.35;;
18166;SDS011;9208;42.688;23.404;2023-08-01T13:05:26;2.92;;;2.72;;
18166;SDS011;9208;42.688;23.404;2023-08-01T13:07:51;3.17;;;2.90;;
18166;SDS011;9208;42.688;23.404;2023-08-01T13:10:16;3.00;;;2.80;;
18166;SDS011;9208;42.688;23.404;2023-08-01T13:12:42;3.10;;;2.60;;
18166;SDS011;9208;42.688;23.404;2023-08-01T13:15:07;4.18;;;3.00;;
18166;SDS011;9208;42.688;23.404;2023-08-01T13:17:32;4.00;;;2.47;;
18166;SDS011;9208;42.688;23.404;2023-08-01T13:19:57;3.15;;;2.95;;
18166;SDS011;9208;42.688;23.404;2023-08-01T13:22:23;3.90;;;3.20;;
18166;SDS011;9208;42.688;23.404;2023-08-01T13:24:48;3.40;;;3.10;;
18166;SDS011;9208;42.688;23.404;2023-08-01T13:27:14;4.97;;;3.10;;
18166;SDS011;9208;42.688;23.404;2023-08-01T13:29:39;4.45;;;3.30;;
18166;SDS011;9208;42.688;23.404;2023-08-01T13:32:05;3.90;;;3.05;;
18166;SDS011;9208;42.688;23.404;2023-08-01T13:34:31;3.72;;;2.67;;
18166;SDS011;9208;42.688;23.404;2023-08-01T13:36:56;3.25;;;2.95;;
18166;SDS011;9208;42.688;23.404;2023-08-01T13:39:22;4.60;;;2.97;;
18166;SDS011;9208;42.688;23.404;2023-08-01T13:41:47;3.67;;;2.78;;
18166;SDS011;9208;42.688;23.404;2023-08-01T13:44:12;3.03;;;2.78;;
18166;SDS011;9208;42.688;23.404;2023-08-01T13:46:38;3.47;;;2.85;;
18166;SDS011;9208;42.688;23.404;2023-08-01T13:49:03;3.42;;;2.70;;
18166;SDS011;9208;42.688;23.404;2023-08-01T13:51:30;2.90;;;2.70;;
18166;SDS011;9208;42.688;23.404;2023-08-01T13:53:56;4.05;;;2.72;;
18166;SDS011;9208;42.688;23.404;2023-08-01T13:56:24;4.95;;;3.10;;
18166;SDS011;9208;42.688;23.404;2023-08-01T13:58:49;3.33;;;2.73;;
18166;SDS011;9208;42.688;23.404;2023-08-01T14:01:15;2.85;;;2.65;;
18166;SDS011;9208;42.688;23.404;2023-08-01T14:03:40;3.45;;;2.70;;
18166;SDS011;9208;42.688;23.404;2023-08-01T14:06:06;3.22;;;2.67;;
18166;SDS011;9208;42.688;23.404;2023-08-01T14:08:32;3.70;;;2.65;;
18166;SDS011;9208;42.688;23.404;2023-08-01T14:10:58;3.67;;;2.72;;
18166;SDS011;9208;42.688;23.404;2023-08-01T14:13:23;3.85;;;2.58;;
18166;SDS011;9208;42.688;23.404;2023-08-01T14:15:48;4.18;;;2.55;;
18166;SDS011;9208;42.688;23.404;2023-08-01T14:18:14;2.78;;;2.60;;
18166;SDS011;9208;42.688;23.404;2023-08-01T14:20:39;2.90;;;2.70;;
18166;SDS011;9208;42.688;23.404;2023-08-01T14:23:04;3.55;;;2.60;;
18166;SDS011;9208;42.688;23.404;2023-08-01T14:25:29;3.00;;;2.70;;
18166;SDS011;9208;42.688;23.404;2023-08-01T14:27:55;3.63;;;2.70;;
18166;SDS011;9208;42.688;23.404;2023-08-01T14:30:20;2.67;;;2.47;;
18166;SDS011;9208;42.688;23.404;2023-08-01T14:32:45;2.75;;;2.55;;
18166;SDS011;9208;42.688;23.404;2023-08-01T14:35:11;2.70;;;2.50;;
18166;SDS011;9208;42.688;23.404;2023-08-01T14:37:37;2.45;;;2.30;;
18166;SDS011;9208;42.688;23.404;2023-08-01T14:40:02;3.08;;;2.58;;